This is the latest recevied weather packets stored in our database for station/object KD8OUK. If no packets are shown the sender has not sent any weather packets the latest 10 day(s).
| Time | Temp. | Humidity | Pressure | Rain* | Wind** | Luminosity | Snow |
|---|---|---|---|---|---|---|---|
| 1777727423 | 2.22° C | 92% | 1018.5 hPa | 0 mm | - | - | - |
| 1777727121 | 2.22° C | 91% | 1018.5 hPa | 0 mm | - | - | - |
| 1777726819 | 2.22° C | 90% | 1018.2 hPa | 0 mm | - | - | - |
| 1777726518 | 2.22° C | 90% | 1018.2 hPa | 0 mm | - | - | - |
| 1777726227 | 2.22° C | 90% | 1018.2 hPa | 0 mm | - | - | - |
| 1777725629 | 1.11° C | 95% | 1018.3 hPa | 0 mm | - | - | - |
| 1777725321 | 1.67° C | 92% | 1018.2 hPa | 0 mm | - | - | - |
| 1777725032 | 1.11° C | 93% | 1018.2 hPa | 0 mm | - | - | - |
| 1777724719 | 1.11° C | 94% | 1018 hPa | 0 mm | - | - | - |
| 1777724429 | 1.11° C | 96% | 1018 hPa | 0 mm | - | - | - |
| 1777724121 | 0.56° C | 97% | 1017.9 hPa | 0 mm | - | - | - |
| 1777723831 | 0° C | 99% | 1017.8 hPa | 0 mm | - | - | - |
| 1777723523 | 0° C | 99% | 1017.8 hPa | 0 mm | - | - | - |
| 1777723233 | -0.56° C | 99% | 1017.8 hPa | 0 mm | - | - | - |
| 1777722925 | -0.56° C | 99% | 1017.8 hPa | 0 mm | - | - | - |
| 1777722617 | -0.56° C | 99% | 1017.7 hPa | 0 mm | - | - | - |
| 1777722327 | -0.56° C | 99% | 1017.6 hPa | 0 mm | - | - | - |
| 1777722020 | -0.56° C | 99% | 1017.6 hPa | 0 mm | - | - | - |
| 1777721729 | -1.11° C | 99% | 1017.8 hPa | 0 mm | - | - | - |
| 1777721421 | -1.11° C | 99% | 1017.8 hPa | 0 mm | - | - | - |
| 1777721132 | -1.67° C | 99% | 1017.8 hPa | 0 mm | - | - | - |
| 1777720824 | -1.67° C | 99% | 1017.8 hPa | 0 mm | - | - | - |
| 1777720516 | -1.67° C | 99% | 1017.8 hPa | 0 mm | - | - | - |
| 1777720226 | -1.67° C | 99% | 1017.8 hPa | 0 mm | - | - | - |
| 1777719919 | -1.67° C | 99% | 1017.8 hPa | 0 mm | - | - | - |
* Rain latest hour (hover to see other rain measurements)
** Current wind speed in m/s (hover to see current wind gust speed)